sensor_id;sensor_type;location;lat;lon;timestamp;P1;durP1;ratioP1;P2;durP2;ratioP2
9950;SDS011;24074;49.254;6.702;2023-06-22T00:00:54;16.17;;;10.50;;
9950;SDS011;24074;49.254;6.702;2023-06-22T00:03:20;12.43;;;11.13;;
9950;SDS011;24074;49.254;6.702;2023-06-22T00:05:47;13.33;;;11.17;;
9950;SDS011;24074;49.254;6.702;2023-06-22T00:08:13;12.87;;;11.50;;
9950;SDS011;24074;49.254;6.702;2023-06-22T00:10:39;12.07;;;10.73;;
9950;SDS011;24074;49.254;6.702;2023-06-22T00:13:05;12.40;;;11.10;;
9950;SDS011;24074;49.254;6.702;2023-06-22T00:15:31;12.23;;;11.03;;
9950;SDS011;24074;49.254;6.702;2023-06-22T00:17:57;17.30;;;12.50;;
9950;SDS011;24074;49.254;6.702;2023-06-22T00:20:23;14.80;;;12.10;;
9950;SDS011;24074;49.254;6.702;2023-06-22T00:22:52;15.27;;;12.60;;
9950;SDS011;24074;49.254;6.702;2023-06-22T00:25:19;16.90;;;13.37;;
9950;SDS011;24074;49.254;6.702;2023-06-22T00:27:44;20.53;;;14.00;;
9950;SDS011;24074;49.254;6.702;2023-06-22T00:30:10;14.90;;;12.87;;
9950;SDS011;24074;49.254;6.702;2023-06-22T00:32:36;15.17;;;13.40;;
9950;SDS011;24074;49.254;6.702;2023-06-22T00:35:01;15.10;;;13.53;;
9950;SDS011;24074;49.254;6.702;2023-06-22T00:37:27;14.50;;;13.00;;
9950;SDS011;24074;49.254;6.702;2023-06-22T00:39:54;13.97;;;12.50;;
9950;SDS011;24074;49.254;6.702;2023-06-22T00:42:23;14.77;;;13.23;;
9950;SDS011;24074;49.254;6.702;2023-06-22T00:44:49;14.30;;;12.70;;
9950;SDS011;24074;49.254;6.702;2023-06-22T00:47:16;14.00;;;12.60;;
9950;SDS011;24074;49.254;6.702;2023-06-22T00:49:43;15.07;;;13.07;;
9950;SDS011;24074;49.254;6.702;2023-06-22T00:52:10;16.40;;;13.07;;
9950;SDS011;24074;49.254;6.702;2023-06-22T00:54:40;16.70;;;12.27;;
9950;SDS011;24074;49.254;6.702;2023-06-22T00:57:10;15.77;;;11.83;;
9950;SDS011;24074;49.254;6.702;2023-06-22T00:59:40;16.50;;;12.90;;
9950;SDS011;24074;49.254;6.702;2023-06-22T01:02:10;26.70;;;18.03;;
9950;SDS011;24074;49.254;6.702;2023-06-22T01:04:37;26.13;;;18.50;;
9950;SDS011;24074;49.254;6.702;2023-06-22T01:10:06;19.70;;;15.50;;
9950;SDS011;24074;49.254;6.702;2023-06-22T01:12:40;19.53;;;15.20;;
9950;SDS011;24074;49.254;6.702;2023-06-22T01:15:11;16.60;;;14.60;;
9950;SDS011;24074;49.254;6.702;2023-06-22T01:17:44;14.77;;;13.00;;
9950;SDS011;24074;49.254;6.702;2023-06-22T01:20:12;14.43;;;12.80;;
9950;SDS011;24074;49.254;6.702;2023-06-22T01:23:26;15.80;;;12.87;;
9950;SDS011;24074;49.254;6.702;2023-06-22T01:25:59;16.00;;;12.77;;
9950;SDS011;24074;49.254;6.702;2023-06-22T01:28:50;16.00;;;13.77;;
9950;SDS011;24074;49.254;6.702;2023-06-22T01:31:22;16.13;;;14.53;;
9950;SDS011;24074;49.254;6.702;2023-06-22T01:33:51;15.43;;;13.83;;
9950;SDS011;24074;49.254;6.702;2023-06-22T01:36:22;14.77;;;12.43;;
9950;SDS011;24074;49.254;6.702;2023-06-22T01:38:49;14.23;;;12.67;;
9950;SDS011;24074;49.254;6.702;2023-06-22T01:41:16;17.57;;;13.47;;
9950;SDS011;24074;49.254;6.702;2023-06-22T01:43:42;15.47;;;13.03;;
9950;SDS011;24074;49.254;6.702;2023-06-22T01:46:08;17.07;;;13.57;;
9950;SDS011;24074;49.254;6.702;2023-06-22T01:48:36;14.63;;;12.73;;
9950;SDS011;24074;49.254;6.702;2023-06-22T01:51:03;14.60;;;13.10;;
9950;SDS011;24074;49.254;6.702;2023-06-22T01:53:28;15.33;;;13.70;;
9950;SDS011;24074;49.254;6.702;2023-06-22T01:55:54;16.60;;;14.03;;
9950;SDS011;24074;49.254;6.702;2023-06-22T01:58:23;18.03;;;13.23;;
9950;SDS011;24074;49.254;6.702;2023-06-22T02:01:13;15.73;;;12.70;;
9950;SDS011;24074;49.254;6.702;2023-06-22T02:03:43;15.20;;;13.27;;
9950;SDS011;24074;49.254;6.702;2023-06-22T02:06:17;15.63;;;13.90;;
9950;SDS011;24074;49.254;6.702;2023-06-22T02:08:57;17.83;;;15.57;;
9950;SDS011;24074;49.254;6.702;2023-06-22T02:11:26;16.93;;;14.43;;
9950;SDS011;24074;49.254;6.702;2023-06-22T02:13:53;15.83;;;14.13;;
9950;SDS011;24074;49.254;6.702;2023-06-22T02:16:21;21.97;;;14.67;;
9950;SDS011;24074;49.254;6.702;2023-06-22T02:18:48;14.93;;;13.43;;
9950;SDS011;24074;49.254;6.702;2023-06-22T02:21:17;14.63;;;13.07;;
9950;SDS011;24074;49.254;6.702;2023-06-22T02:23:43;16.00;;;13.57;;
9950;SDS011;24074;49.254;6.702;2023-06-22T02:26:09;16.20;;;12.93;;
9950;SDS011;24074;49.254;6.702;2023-06-22T02:28:35;13.57;;;12.27;;
9950;SDS011;24074;49.254;6.702;2023-06-22T02:31:00;14.37;;;12.83;;
9950;SDS011;24074;49.254;6.702;2023-06-22T02:33:26;14.30;;;12.87;;
9950;SDS011;24074;49.254;6.702;2023-06-22T02:35:52;13.33;;;12.03;;
9950;SDS011;24074;49.254;6.702;2023-06-22T02:38:18;14.43;;;13.00;;
9950;SDS011;24074;49.254;6.702;2023-06-22T02:40:44;14.30;;;12.53;;
9950;SDS011;24074;49.254;6.702;2023-06-22T02:43:10;14.17;;;12.70;;
9950;SDS011;24074;49.254;6.702;2023-06-22T02:45:35;15.63;;;13.00;;
9950;SDS011;24074;49.254;6.702;2023-06-22T02:48:01;14.97;;;13.33;;
9950;SDS011;24074;49.254;6.702;2023-06-22T02:50:26;14.17;;;12.70;;
9950;SDS011;24074;49.254;6.702;2023-06-22T02:52:52;15.20;;;13.57;;
9950;SDS011;24074;49.254;6.702;2023-06-22T02:55:17;16.17;;;12.97;;
9950;SDS011;24074;49.254;6.702;2023-06-22T02:57:43;16.70;;;13.97;;
9950;SDS011;24074;49.254;6.702;2023-06-22T03:00:10;14.77;;;13.27;;
9950;SDS011;24074;49.254;6.702;2023-06-22T03:02:42;14.73;;;13.00;;
9950;SDS011;24074;49.254;6.702;2023-06-22T03:05:12;14.27;;;12.53;;
9950;SDS011;24074;49.254;6.702;2023-06-22T03:07:41;14.17;;;12.73;;
9950;SDS011;24074;49.254;6.702;2023-06-22T03:10:10;14.60;;;13.10;;
9950;SDS011;24074;49.254;6.702;2023-06-22T03:12:37;14.43;;;12.60;;
9950;SDS011;24074;49.254;6.702;2023-06-22T03:15:07;15.30;;;13.70;;
9950;SDS011;24074;49.254;6.702;2023-06-22T03:17:34;14.80;;;13.37;;
9950;SDS011;24074;49.254;6.702;2023-06-22T03:20:01;16.63;;;14.50;;
9950;SDS011;24074;49.254;6.702;2023-06-22T03:22:34;16.93;;;14.97;;
9950;SDS011;24074;49.254;6.702;2023-06-22T03:25:04;15.50;;;14.00;;
9950;SDS011;24074;49.254;6.702;2023-06-22T03:27:35;16.40;;;14.70;;
9950;SDS011;24074;49.254;6.702;2023-06-22T03:30:04;15.90;;;14.30;;
9950;SDS011;24074;49.254;6.702;2023-06-22T03:32:30;16.17;;;14.37;;
9950;SDS011;24074;49.254;6.702;2023-06-22T03:34:56;15.97;;;14.27;;
9950;SDS011;24074;49.254;6.702;2023-06-22T03:37:24;15.87;;;14.17;;
9950;SDS011;24074;49.254;6.702;2023-06-22T03:39:50;17.13;;;14.80;;
9950;SDS011;24074;49.254;6.702;2023-06-22T03:42:15;19.00;;;15.40;;
9950;SDS011;24074;49.254;6.702;2023-06-22T03:44:41;17.80;;;15.37;;
9950;SDS011;24074;49.254;6.702;2023-06-22T03:47:06;16.90;;;15.30;;
9950;SDS011;24074;49.254;6.702;2023-06-22T03:49:32;16.83;;;15.10;;
9950;SDS011;24074;49.254;6.702;2023-06-22T03:51:59;17.23;;;15.47;;
9950;SDS011;24074;49.254;6.702;2023-06-22T03:54:26;16.70;;;15.13;;
9950;SDS011;24074;49.254;6.702;2023-06-22T03:56:52;16.13;;;14.63;;
9950;SDS011;24074;49.254;6.702;2023-06-22T03:59:18;16.17;;;14.67;;
9950;SDS011;24074;49.254;6.702;2023-06-22T04:01:43;14.93;;;13.43;;
9950;SDS011;24074;49.254;6.702;2023-06-22T04:04:09;16.30;;;14.00;;
9950;SDS011;24074;49.254;6.702;2023-06-22T04:06:35;15.40;;;13.80;;
9950;SDS011;24074;49.254;6.702;2023-06-22T04:09:00;15.37;;;13.87;;
9950;SDS011;24074;49.254;6.702;2023-06-22T04:11:26;15.03;;;13.60;;
9950;SDS011;24074;49.254;6.702;2023-06-22T04:13:52;14.07;;;12.67;;
9950;SDS011;24074;49.254;6.702;2023-06-22T04:16:18;14.30;;;12.73;;
9950;SDS011;24074;49.254;6.702;2023-06-22T04:18:43;12.87;;;11.47;;
9950;SDS011;24074;49.254;6.702;2023-06-22T04:21:10;12.03;;;10.90;;
9950;SDS011;24074;49.254;6.702;2023-06-22T04:23:35;12.80;;;11.50;;
9950;SDS011;24074;49.254;6.702;2023-06-22T04:26:01;13.10;;;11.77;;
9950;SDS011;24074;49.254;6.702;2023-06-22T04:28:26;13.10;;;11.97;;
9950;SDS011;24074;49.254;6.702;2023-06-22T04:30:52;13.47;;;12.07;;
9950;SDS011;24074;49.254;6.702;2023-06-22T04:33:22;12.63;;;11.40;;
9950;SDS011;24074;49.254;6.702;2023-06-22T04:35:47;12.97;;;11.50;;
9950;SDS011;24074;49.254;6.702;2023-06-22T04:38:13;12.23;;;10.93;;
9950;SDS011;24074;49.254;6.702;2023-06-22T04:40:39;12.93;;;11.83;;
9950;SDS011;24074;49.254;6.702;2023-06-22T04:43:05;13.93;;;11.13;;
9950;SDS011;24074;49.254;6.702;2023-06-22T04:45:31;12.20;;;11.17;;
9950;SDS011;24074;49.254;6.702;2023-06-22T04:47:58;12.57;;;10.93;;
9950;SDS011;24074;49.254;6.702;2023-06-22T04:50:24;13.20;;;11.83;;
9950;SDS011;24074;49.254;6.702;2023-06-22T04:52:50;11.80;;;10.63;;
9950;SDS011;24074;49.254;6.702;2023-06-22T04:55:16;12.67;;;11.30;;
9950;SDS011;24074;49.254;6.702;2023-06-22T04:57:44;12.97;;;10.70;;
9950;SDS011;24074;49.254;6.702;2023-06-22T05:00:14;11.30;;;10.20;;
9950;SDS011;24074;49.254;6.702;2023-06-22T05:02:42;10.67;;;9.30;;
9950;SDS011;24074;49.254;6.702;2023-06-22T05:05:09;11.53;;;10.40;;
9950;SDS011;24074;49.254;6.702;2023-06-22T05:07:38;10.77;;;9.83;;
9950;SDS011;24074;49.254;6.702;2023-06-22T05:10:07;11.47;;;10.30;;
9950;SDS011;24074;49.254;6.702;2023-06-22T05:12:38;10.60;;;9.60;;
9950;SDS011;24074;49.254;6.702;2023-06-22T05:15:05;9.93;;;9.03;;
9950;SDS011;24074;49.254;6.702;2023-06-22T05:17:34;10.97;;;9.93;;
9950;SDS011;24074;49.254;6.702;2023-06-22T05:20:01;10.50;;;9.53;;
9950;SDS011;24074;49.254;6.702;2023-06-22T05:22:29;11.13;;;10.00;;
9950;SDS011;24074;49.254;6.702;2023-06-22T05:24:55;11.43;;;9.93;;
9950;SDS011;24074;49.254;6.702;2023-06-22T05:27:20;10.63;;;9.70;;
9950;SDS011;24074;49.254;6.702;2023-06-22T05:29:46;10.10;;;9.20;;
9950;SDS011;24074;49.254;6.702;2023-06-22T05:32:11;10.77;;;9.60;;
9950;SDS011;24074;49.254;6.702;2023-06-22T05:34:37;9.63;;;8.63;;
9950;SDS011;24074;49.254;6.702;2023-06-22T05:37:03;11.73;;;8.13;;
9950;SDS011;24074;49.254;6.702;2023-06-22T05:39:29;10.53;;;8.17;;
9950;SDS011;24074;49.254;6.702;2023-06-22T05:41:55;8.87;;;8.07;;
9950;SDS011;24074;49.254;6.702;2023-06-22T05:44:20;11.03;;;8.03;;
9950;SDS011;24074;49.254;6.702;2023-06-22T05:46:46;9.82;;;7.65;;
9950;SDS011;24074;49.254;6.702;2023-06-22T05:49:13;8.35;;;7.55;;
9950;SDS011;24074;49.254;6.702;2023-06-22T05:51:39;11.43;;;8.07;;
9950;SDS011;24074;49.254;6.702;2023-06-22T05:54:05;10.15;;;7.93;;
9950;SDS011;24074;49.254;6.702;2023-06-22T05:56:30;10.40;;;7.38;;
9950;SDS011;24074;49.254;6.702;2023-06-22T05:58:56;8.38;;;7.57;;
9950;SDS011;24074;49.254;6.702;2023-06-22T06:01:21;7.68;;;6.88;;
9950;SDS011;24074;49.254;6.702;2023-06-22T06:03:47;7.38;;;6.68;;
9950;SDS011;24074;49.254;6.702;2023-06-22T06:06:14;8.43;;;6.63;;
9950;SDS011;24074;49.254;6.702;2023-06-22T06:08:41;10.95;;;7.07;;
9950;SDS011;24074;49.254;6.702;2023-06-22T06:11:07;9.13;;;7.10;;
9950;SDS011;24074;49.254;6.702;2023-06-22T06:13:32;6.75;;;6.05;;
9950;SDS011;24074;49.254;6.702;2023-06-22T06:15:59;7.22;;;6.50;;
9950;SDS011;24074;49.254;6.702;2023-06-22T06:18:25;7.45;;;6.85;;
9950;SDS011;24074;49.254;6.702;2023-06-22T06:20:51;7.25;;;6.55;;
9950;SDS011;24074;49.254;6.702;2023-06-22T06:23:16;7.15;;;6.43;;
9950;SDS011;24074;49.254;6.702;2023-06-22T06:25:42;7.07;;;6.47;;
9950;SDS011;24074;49.254;6.702;2023-06-22T06:28:08;7.47;;;6.50;;
9950;SDS011;24074;49.254;6.702;2023-06-22T06:30:33;8.60;;;6.63;;
9950;SDS011;24074;49.254;6.702;2023-06-22T06:33:02;7.38;;;6.68;;
9950;SDS011;24074;49.254;6.702;2023-06-22T06:35:28;7.28;;;6.60;;
9950;SDS011;24074;49.254;6.702;2023-06-22T06:37:53;7.82;;;6.72;;
9950;SDS011;24074;49.254;6.702;2023-06-22T06:40:19;7.97;;;7.18;;
9950;SDS011;24074;49.254;6.702;2023-06-22T06:42:45;8.20;;;6.32;;
9950;SDS011;24074;49.254;6.702;2023-06-22T06:45:12;7.88;;;6.45;;
9950;SDS011;24074;49.254;6.702;2023-06-22T06:47:42;7.90;;;6.75;;
9950;SDS011;24074;49.254;6.702;2023-06-22T06:50:08;8.00;;;6.70;;
9950;SDS011;24074;49.254;6.702;2023-06-22T06:52:35;7.20;;;6.50;;
9950;SDS011;24074;49.254;6.702;2023-06-22T06:55:00;7.28;;;6.60;;
9950;SDS011;24074;49.254;6.702;2023-06-22T06:57:27;8.23;;;6.55;;
9950;SDS011;24074;49.254;6.702;2023-06-22T06:59:53;8.60;;;6.25;;
9950;SDS011;24074;49.254;6.702;2023-06-22T07:02:20;8.13;;;6.72;;
9950;SDS011;24074;49.254;6.702;2023-06-22T07:04:46;8.35;;;6.40;;
9950;SDS011;24074;49.254;6.702;2023-06-22T07:07:12;7.00;;;6.30;;
9950;SDS011;24074;49.254;6.702;2023-06-22T07:09:37;9.38;;;6.15;;
9950;SDS011;24074;49.254;6.702;2023-06-22T07:12:03;8.27;;;6.45;;
9950;SDS011;24074;49.254;6.702;2023-06-22T07:14:29;8.35;;;7.00;;
9950;SDS011;24074;49.254;6.702;2023-06-22T07:16:56;6.90;;;6.20;;
9950;SDS011;24074;49.254;6.702;2023-06-22T07:19:25;8.50;;;6.32;;
9950;SDS011;24074;49.254;6.702;2023-06-22T07:21:52;6.90;;;6.28;;
9950;SDS011;24074;49.254;6.702;2023-06-22T07:24:21;7.60;;;5.80;;
9950;SDS011;24074;49.254;6.702;2023-06-22T07:26:48;6.80;;;5.75;;
9950;SDS011;24074;49.254;6.702;2023-06-22T07:29:15;7.10;;;5.78;;
9950;SDS011;24074;49.254;6.702;2023-06-22T07:31:41;6.32;;;5.72;;
9950;SDS011;24074;49.254;6.702;2023-06-22T07:34:07;6.18;;;5.68;;
9950;SDS011;24074;49.254;6.702;2023-06-22T07:36:32;6.20;;;5.60;;
9950;SDS011;24074;49.254;6.702;2023-06-22T07:39:00;6.38;;;5.68;;
9950;SDS011;24074;49.254;6.702;2023-06-22T07:41:27;6.03;;;5.45;;
9950;SDS011;24074;49.254;6.702;2023-06-22T07:43:52;7.20;;;5.60;;
9950;SDS011;24074;49.254;6.702;2023-06-22T07:46:18;7.13;;;6.25;;
9950;SDS011;24074;49.254;6.702;2023-06-22T07:48:43;7.30;;;5.47;;
9950;SDS011;24074;49.254;6.702;2023-06-22T07:51:09;6.72;;;5.93;;
9950;SDS011;24074;49.254;6.702;2023-06-22T07:53:39;6.85;;;5.80;;
9950;SDS011;24074;49.254;6.702;2023-06-22T07:56:06;6.85;;;5.90;;
9950;SDS011;24074;49.254;6.702;2023-06-22T07:58:34;9.25;;;7.00;;
9950;SDS011;24074;49.254;6.702;2023-06-22T08:01:00;6.97;;;6.27;;
9950;SDS011;24074;49.254;6.702;2023-06-22T08:03:25;7.20;;;6.53;;
9950;SDS011;24074;49.254;6.702;2023-06-22T08:05:51;7.37;;;6.30;;
9950;SDS011;24074;49.254;6.702;2023-06-22T08:08:16;8.82;;;6.40;;
9950;SDS011;24074;49.254;6.702;2023-06-22T08:10:42;6.00;;;5.40;;
9950;SDS011;24074;49.254;6.702;2023-06-22T08:13:08;6.60;;;5.88;;
9950;SDS011;24074;49.254;6.702;2023-06-22T08:15:33;6.85;;;6.00;;
9950;SDS011;24074;49.254;6.702;2023-06-22T08:17:59;7.05;;;6.13;;
9950;SDS011;24074;49.254;6.702;2023-06-22T08:20:26;7.15;;;6.22;;
9950;SDS011;24074;49.254;6.702;2023-06-22T08:22:52;7.60;;;5.90;;
9950;SDS011;24074;49.254;6.702;2023-06-22T08:25:19;7.20;;;6.50;;
9950;SDS011;24074;49.254;6.702;2023-06-22T08:27:45;7.63;;;6.90;;
9950;SDS011;24074;49.254;6.702;2023-06-22T08:30:12;7.53;;;6.72;;
9950;SDS011;24074;49.254;6.702;2023-06-22T08:32:38;7.70;;;6.97;;
9950;SDS011;24074;49.254;6.702;2023-06-22T08:35:04;7.97;;;7.15;;
9950;SDS011;24074;49.254;6.702;2023-06-22T08:37:31;7.88;;;7.00;;
9950;SDS011;24074;49.254;6.702;2023-06-22T08:40:00;8.38;;;6.88;;
9950;SDS011;24074;49.254;6.702;2023-06-22T08:42:30;9.27;;;7.68;;
9950;SDS011;24074;49.254;6.702;2023-06-22T08:44:56;10.85;;;7.65;;
9950;SDS011;24074;49.254;6.702;2023-06-22T08:47:22;8.70;;;7.80;;
9950;SDS011;24074;49.254;6.702;2023-06-22T08:49:48;9.70;;;7.50;;
9950;SDS011;24074;49.254;6.702;2023-06-22T08:52:13;10.32;;;7.50;;
9950;SDS011;24074;49.254;6.702;2023-06-22T08:54:39;8.63;;;7.32;;
9950;SDS011;24074;49.254;6.702;2023-06-22T08:57:05;7.72;;;6.93;;
9950;SDS011;24074;49.254;6.702;2023-06-22T08:59:31;7.13;;;6.40;;
9950;SDS011;24074;49.254;6.702;2023-06-22T09:01:56;9.45;;;7.63;;
9950;SDS011;24074;49.254;6.702;2023-06-22T09:04:22;7.85;;;7.05;;
9950;SDS011;24074;49.254;6.702;2023-06-22T09:06:48;7.35;;;6.65;;
9950;SDS011;24074;49.254;6.702;2023-06-22T09:09:15;7.47;;;6.78;;
9950;SDS011;24074;49.254;6.702;2023-06-22T09:11:41;7.07;;;6.38;;
9950;SDS011;24074;49.254;6.702;2023-06-22T09:14:07;7.95;;;7.15;;
9950;SDS011;24074;49.254;6.702;2023-06-22T09:16:33;9.30;;;6.57;;
9950;SDS011;24074;49.254;6.702;2023-06-22T09:18:59;6.68;;;6.07;;
9950;SDS011;24074;49.254;6.702;2023-06-22T09:21:25;6.68;;;5.88;;
9950;SDS011;24074;49.254;6.702;2023-06-22T09:23:51;7.60;;;6.03;;
9950;SDS011;24074;49.254;6.702;2023-06-22T09:26:20;6.80;;;6.10;;
9950;SDS011;24074;49.254;6.702;2023-06-22T09:28:47;6.82;;;5.28;;
9950;SDS011;24074;49.254;6.702;2023-06-22T09:31:13;6.55;;;5.10;;
9950;SDS011;24074;49.254;6.702;2023-06-22T09:33:39;6.20;;;5.30;;
9950;SDS011;24074;49.254;6.702;2023-06-22T09:36:08;6.20;;;5.60;;
9950;SDS011;24074;49.254;6.702;2023-06-22T09:38:37;6.53;;;5.45;;
9950;SDS011;24074;49.254;6.702;2023-06-22T09:41:03;5.57;;;5.03;;
9950;SDS011;24074;49.254;6.702;2023-06-22T09:43:32;7.45;;;4.72;;
9950;SDS011;24074;49.254;6.702;2023-06-22T09:46:00;5.70;;;4.97;;
9950;SDS011;24074;49.254;6.702;2023-06-22T09:48:27;5.53;;;5.03;;
9950;SDS011;24074;49.254;6.702;2023-06-22T09:50:54;5.50;;;5.00;;
9950;SDS011;24074;49.254;6.702;2023-06-22T09:53:20;8.23;;;7.47;;
9950;SDS011;24074;49.254;6.702;2023-06-22T09:55:45;8.45;;;5.72;;
9950;SDS011;24074;49.254;6.702;2023-06-22T09:58:11;7.90;;;7.13;;
9950;SDS011;24074;49.254;6.702;2023-06-22T10:00:36;13.43;;;11.88;;
9950;SDS011;24074;49.254;6.702;2023-06-22T10:03:02;8.82;;;6.25;;
9950;SDS011;24074;49.254;6.702;2023-06-22T10:05:28;9.00;;;6.03;;
9950;SDS011;24074;49.254;6.702;2023-06-22T10:07:53;5.25;;;4.75;;
9950;SDS011;24074;49.254;6.702;2023-06-22T10:10:19;6.80;;;5.38;;
9950;SDS011;24074;49.254;6.702;2023-06-22T10:12:48;5.57;;;4.97;;
9950;SDS011;24074;49.254;6.702;2023-06-22T10:15:20;5.60;;;5.10;;
9950;SDS011;24074;49.254;6.702;2023-06-22T10:17:46;6.63;;;4.97;;
9950;SDS011;24074;49.254;6.702;2023-06-22T10:20:12;6.00;;;5.28;;
9950;SDS011;24074;49.254;6.702;2023-06-22T10:22:42;5.65;;;4.95;;
9950;SDS011;24074;49.254;6.702;2023-06-22T10:25:09;7.72;;;4.88;;
9950;SDS011;24074;49.254;6.702;2023-06-22T10:27:38;6.25;;;4.80;;
9950;SDS011;24074;49.254;6.702;2023-06-22T10:30:07;5.65;;;4.65;;
9950;SDS011;24074;49.254;6.702;2023-06-22T10:32:34;4.93;;;4.53;;
9950;SDS011;24074;49.254;6.702;2023-06-22T10:34:59;7.18;;;5.10;;
9950;SDS011;24074;49.254;6.702;2023-06-22T10:37:25;5.28;;;4.82;;
9950;SDS011;24074;49.254;6.702;2023-06-22T10:39:50;6.60;;;4.93;;
9950;SDS011;24074;49.254;6.702;2023-06-22T10:42:16;5.53;;;5.03;;
9950;SDS011;24074;49.254;6.702;2023-06-22T10:44:42;5.55;;;5.00;;
9950;SDS011;24074;49.254;6.702;2023-06-22T10:47:09;6.60;;;4.60;;
9950;SDS011;24074;49.254;6.702;2023-06-22T10:49:36;7.82;;;5.50;;
9950;SDS011;24074;49.254;6.702;2023-06-22T10:52:07;5.95;;;4.85;;
9950;SDS011;24074;49.254;6.702;2023-06-22T10:54:34;5.75;;;5.13;;
9950;SDS011;24074;49.254;6.702;2023-06-22T10:57:01;6.05;;;5.28;;
9950;SDS011;24074;49.254;6.702;2023-06-22T10:59:27;5.30;;;4.70;;
9950;SDS011;24074;49.254;6.702;2023-06-22T11:01:53;5.82;;;4.97;;
9950;SDS011;24074;49.254;6.702;2023-06-22T11:04:20;7.45;;;4.82;;
9950;SDS011;24074;49.254;6.702;2023-06-22T11:06:46;6.80;;;5.47;;
9950;SDS011;24074;49.254;6.702;2023-06-22T11:09:12;6.60;;;5.28;;
9950;SDS011;24074;49.254;6.702;2023-06-22T11:11:43;5.55;;;5.05;;
9950;SDS011;24074;49.254;6.702;2023-06-22T11:14:09;7.22;;;4.75;;
9950;SDS011;24074;49.254;6.702;2023-06-22T11:16:34;7.80;;;4.78;;
9950;SDS011;24074;49.254;6.702;2023-06-22T11:19:00;8.68;;;5.30;;
9950;SDS011;24074;49.254;6.702;2023-06-22T11:21:25;7.72;;;5.20;;
9950;SDS011;24074;49.254;6.702;2023-06-22T11:23:51;7.40;;;5.07;;
9950;SDS011;24074;49.254;6.702;2023-06-22T11:26:16;9.65;;;5.70;;
9950;SDS011;24074;49.254;6.702;2023-06-22T11:28:42;6.68;;;4.65;;
9950;SDS011;24074;49.254;6.702;2023-06-22T11:31:08;7.35;;;5.10;;
9950;SDS011;24074;49.254;6.702;2023-06-22T11:33:34;7.57;;;5.40;;
9950;SDS011;24074;49.254;6.702;2023-06-22T11:35:59;8.75;;;5.63;;
9950;SDS011;24074;49.254;6.702;2023-06-22T11:38:25;7.93;;;5.38;;
9950;SDS011;24074;49.254;6.702;2023-06-22T11:40:50;8.85;;;4.72;;
9950;SDS011;24074;49.254;6.702;2023-06-22T11:43:16;10.10;;;5.50;;
9950;SDS011;24074;49.254;6.702;2023-06-22T11:45:41;5.90;;;4.57;;
9950;SDS011;24074;49.254;6.702;2023-06-22T11:48:07;7.68;;;4.70;;
9950;SDS011;24074;49.254;6.702;2023-06-22T11:50:32;11.10;;;5.20;;
9950;SDS011;24074;49.254;6.702;2023-06-22T11:53:01;10.13;;;4.93;;
9950;SDS011;24074;49.254;6.702;2023-06-22T11:55:28;7.25;;;4.53;;
9950;SDS011;24074;49.254;6.702;2023-06-22T11:57:54;6.95;;;4.43;;
9950;SDS011;24074;49.254;6.702;2023-06-22T12:00:26;8.73;;;4.97;;
9950;SDS011;24074;49.254;6.702;2023-06-22T12:02:51;8.32;;;4.80;;
9950;SDS011;24074;49.254;6.702;2023-06-22T12:05:20;9.82;;;4.90;;
9950;SDS011;24074;49.254;6.702;2023-06-22T12:07:47;9.15;;;4.60;;
9950;SDS011;24074;49.254;6.702;2023-06-22T12:10:13;8.88;;;4.63;;
9950;SDS011;24074;49.254;6.702;2023-06-22T12:12:38;7.60;;;4.40;;
9950;SDS011;24074;49.254;6.702;2023-06-22T12:15:04;12.95;;;5.25;;
9950;SDS011;24074;49.254;6.702;2023-06-22T12:17:30;7.35;;;5.00;;
9950;SDS011;24074;49.254;6.702;2023-06-22T12:19:56;8.80;;;4.53;;
9950;SDS011;24074;49.254;6.702;2023-06-22T12:22:22;10.20;;;4.47;;
9950;SDS011;24074;49.254;6.702;2023-06-22T12:24:50;10.38;;;4.80;;
9950;SDS011;24074;49.254;6.702;2023-06-22T12:27:16;9.82;;;4.70;;
9950;SDS011;24074;49.254;6.702;2023-06-22T12:29:45;10.20;;;4.50;;
9950;SDS011;24074;49.254;6.702;2023-06-22T12:32:12;9.50;;;4.43;;
9950;SDS011;24074;49.254;6.702;2023-06-22T12:34:38;11.85;;;4.75;;
9950;SDS011;24074;49.254;6.702;2023-06-22T12:37:05;10.52;;;4.28;;
9950;SDS011;24074;49.254;6.702;2023-06-22T12:39:31;8.65;;;4.55;;
9950;SDS011;24074;49.254;6.702;2023-06-22T12:42:00;11.25;;;4.43;;
9950;SDS011;24074;49.254;6.702;2023-06-22T12:44:26;10.45;;;3.83;;
9950;SDS011;24074;49.254;6.702;2023-06-22T12:46:51;15.75;;;4.47;;
9950;SDS011;24074;49.254;6.702;2023-06-22T12:49:17;9.45;;;4.00;;
9950;SDS011;24074;49.254;6.702;2023-06-22T12:51:43;13.32;;;4.28;;
9950;SDS011;24074;49.254;6.702;2023-06-22T12:54:09;10.20;;;4.13;;
9950;SDS011;24074;49.254;6.702;2023-06-22T12:56:38;9.35;;;4.30;;
9950;SDS011;24074;49.254;6.702;2023-06-22T12:59:04;13.13;;;4.00;;
9950;SDS011;24074;49.254;6.702;2023-06-22T13:01:31;9.02;;;3.97;;
9950;SDS011;24074;49.254;6.702;2023-06-22T13:03:57;10.38;;;4.07;;
9950;SDS011;24074;49.254;6.702;2023-06-22T13:06:24;8.27;;;4.30;;
9950;SDS011;24074;49.254;6.702;2023-06-22T13:08:49;8.57;;;4.30;;
9950;SDS011;24074;49.254;6.702;2023-06-22T13:11:15;11.82;;;4.50;;
9950;SDS011;24074;49.254;6.702;2023-06-22T13:13:41;8.23;;;3.85;;
9950;SDS011;24074;49.254;6.702;2023-06-22T13:16:06;7.78;;;3.85;;
9950;SDS011;24074;49.254;6.702;2023-06-22T13:18:32;7.78;;;4.25;;
9950;SDS011;24074;49.254;6.702;2023-06-22T13:21:00;12.55;;;4.32;;
9950;SDS011;24074;49.254;6.702;2023-06-22T13:23:26;8.90;;;3.88;;
9950;SDS011;24074;49.254;6.702;2023-06-22T13:25:52;7.97;;;3.80;;
9950;SDS011;24074;49.254;6.702;2023-06-22T13:28:18;6.45;;;3.22;;
9950;SDS011;24074;49.254;6.702;2023-06-22T13:30:43;3.78;;;3.03;;
9950;SDS011;24074;49.254;6.702;2023-06-22T13:33:12;8.48;;;3.58;;
9950;SDS011;24074;49.254;6.702;2023-06-22T13:35:40;7.65;;;3.20;;
9950;SDS011;24074;49.254;6.702;2023-06-22T13:38:07;7.18;;;3.15;;
9950;SDS011;24074;49.254;6.702;2023-06-22T13:40:36;12.90;;;3.00;;
9950;SDS011;24074;49.254;6.702;2023-06-22T13:43:05;13.45;;;3.53;;
9950;SDS011;24074;49.254;6.702;2023-06-22T13:45:31;10.88;;;2.90;;
9950;SDS011;24074;49.254;6.702;2023-06-22T13:47:57;8.60;;;3.15;;
9950;SDS011;24074;49.254;6.702;2023-06-22T13:50:22;15.50;;;2.85;;
9950;SDS011;24074;49.254;6.702;2023-06-22T13:52:48;9.25;;;3.20;;
9950;SDS011;24074;49.254;6.702;2023-06-22T13:55:13;8.70;;;3.60;;
9950;SDS011;24074;49.254;6.702;2023-06-22T13:57:40;7.97;;;3.45;;
9950;SDS011;24074;49.254;6.702;2023-06-22T14:00:06;6.32;;;3.45;;
9950;SDS011;24074;49.254;6.702;2023-06-22T14:02:33;9.48;;;3.10;;
9950;SDS011;24074;49.254;6.702;2023-06-22T14:04:59;9.32;;;3.53;;
9950;SDS011;24074;49.254;6.702;2023-06-22T14:07:25;8.23;;;3.60;;
9950;SDS011;24074;49.254;6.702;2023-06-22T14:09:50;9.02;;;3.30;;
9950;SDS011;24074;49.254;6.702;2023-06-22T14:12:16;7.13;;;3.33;;
9950;SDS011;24074;49.254;6.702;2023-06-22T14:14:46;8.93;;;3.08;;
9950;SDS011;24074;49.254;6.702;2023-06-22T14:17:11;9.65;;;3.33;;
9950;SDS011;24074;49.254;6.702;2023-06-22T14:19:37;5.85;;;3.25;;
9950;SDS011;24074;49.254;6.702;2023-06-22T14:22:02;7.10;;;3.40;;
9950;SDS011;24074;49.254;6.702;2023-06-22T14:24:28;6.30;;;3.25;;
9950;SDS011;24074;49.254;6.702;2023-06-22T14:26:54;10.70;;;3.50;;
9950;SDS011;24074;49.254;6.702;2023-06-22T14:29:21;8.63;;;3.17;;
9950;SDS011;24074;49.254;6.702;2023-06-22T14:31:47;11.40;;;3.28;;
9950;SDS011;24074;49.254;6.702;2023-06-22T14:34:13;5.75;;;3.28;;
9950;SDS011;24074;49.254;6.702;2023-06-22T14:36:42;7.88;;;3.13;;
9950;SDS011;24074;49.254;6.702;2023-06-22T14:39:08;6.38;;;3.30;;
9950;SDS011;24074;49.254;6.702;2023-06-22T14:41:34;7.18;;;3.10;;
9950;SDS011;24074;49.254;6.702;2023-06-22T14:44:00;8.52;;;3.00;;
9950;SDS011;24074;49.254;6.702;2023-06-22T14:46:25;8.55;;;3.30;;
9950;SDS011;24074;49.254;6.702;2023-06-22T14:48:51;5.95;;;3.08;;
9950;SDS011;24074;49.254;6.702;2023-06-22T14:51:17;7.07;;;2.90;;